sensor_id;sensor_type;location;lat;lon;timestamp;P1;durP1;ratioP1;P2;durP2;ratioP2
13731;SDS011;6937;56.096;12.664;2024-02-21T00:00:39;37.10;;;10.23;;
13731;SDS011;6937;56.096;12.664;2024-02-21T00:03:06;43.70;;;10.90;;
13731;SDS011;6937;56.096;12.664;2024-02-21T00:05:32;43.25;;;11.02;;
13731;SDS011;6937;56.096;12.664;2024-02-21T00:07:58;34.45;;;10.48;;
13731;SDS011;6937;56.096;12.664;2024-02-21T00:10:24;39.72;;;11.73;;
13731;SDS011;6937;56.096;12.664;2024-02-21T00:12:50;42.65;;;12.68;;
13731;SDS011;6937;56.096;12.664;2024-02-21T00:15:16;37.92;;;12.30;;
13731;SDS011;6937;56.096;12.664;2024-02-21T00:17:43;44.75;;;13.10;;
13731;SDS011;6937;56.096;12.664;2024-02-21T00:20:09;42.90;;;13.38;;
13731;SDS011;6937;56.096;12.664;2024-02-21T00:22:35;43.63;;;13.10;;
13731;SDS011;6937;56.096;12.664;2024-02-21T00:25:00;43.72;;;14.55;;
13731;SDS011;6937;56.096;12.664;2024-02-21T00:27:26;45.35;;;14.90;;
13731;SDS011;6937;56.096;12.664;2024-02-21T00:29:51;37.22;;;14.70;;
13731;SDS011;6937;56.096;12.664;2024-02-21T00:32:17;37.03;;;14.90;;
13731;SDS011;6937;56.096;12.664;2024-02-21T00:34:42;45.20;;;16.48;;
13731;SDS011;6937;56.096;12.664;2024-02-21T00:37:08;43.78;;;15.98;;
13731;SDS011;6937;56.096;12.664;2024-02-21T00:39:33;50.38;;;16.80;;
13731;SDS011;6937;56.096;12.664;2024-02-21T00:41:59;47.80;;;17.20;;
13731;SDS011;6937;56.096;12.664;2024-02-21T00:44:24;46.17;;;17.80;;
13731;SDS011;6937;56.096;12.664;2024-02-21T00:46:50;45.08;;;17.73;;
13731;SDS011;6937;56.096;12.664;2024-02-21T00:49:15;49.08;;;17.38;;
13731;SDS011;6937;56.096;12.664;2024-02-21T00:51:41;45.13;;;17.90;;
13731;SDS011;6937;56.096;12.664;2024-02-21T00:54:06;45.72;;;19.20;;
13731;SDS011;6937;56.096;12.664;2024-02-21T00:56:32;44.22;;;20.25;;
13731;SDS011;6937;56.096;12.664;2024-02-21T00:58:57;45.53;;;19.48;;
13731;SDS011;6937;56.096;12.664;2024-02-21T01:01:25;45.92;;;21.13;;
13731;SDS011;6937;56.096;12.664;2024-02-21T01:03:50;47.75;;;20.77;;
13731;SDS011;6937;56.096;12.664;2024-02-21T01:06:18;54.88;;;20.38;;
13731;SDS011;6937;56.096;12.664;2024-02-21T01:08:47;46.80;;;21.15;;
13731;SDS011;6937;56.096;12.664;2024-02-21T01:11:13;49.25;;;22.05;;
13731;SDS011;6937;56.096;12.664;2024-02-21T01:13:39;48.83;;;22.48;;
13731;SDS011;6937;56.096;12.664;2024-02-21T01:16:04;53.95;;;23.75;;
13731;SDS011;6937;56.096;12.664;2024-02-21T01:18:32;53.42;;;24.92;;
13731;SDS011;6937;56.096;12.664;2024-02-21T01:20:58;54.20;;;23.15;;
13731;SDS011;6937;56.096;12.664;2024-02-21T01:23:24;50.83;;;23.67;;
13731;SDS011;6937;56.096;12.664;2024-02-21T01:25:49;54.17;;;24.70;;
13731;SDS011;6937;56.096;12.664;2024-02-21T01:28:14;56.17;;;25.17;;
13731;SDS011;6937;56.096;12.664;2024-02-21T01:30:40;50.53;;;24.85;;
13731;SDS011;6937;56.096;12.664;2024-02-21T01:33:05;41.88;;;22.55;;
13731;SDS011;6937;56.096;12.664;2024-02-21T01:35:31;50.80;;;24.25;;
13731;SDS011;6937;56.096;12.664;2024-02-21T01:37:56;52.03;;;23.08;;
13731;SDS011;6937;56.096;12.664;2024-02-21T01:40:21;61.30;;;26.00;;
13731;SDS011;6937;56.096;12.664;2024-02-21T01:42:47;54.85;;;24.45;;
13731;SDS011;6937;56.096;12.664;2024-02-21T01:45:13;58.25;;;25.92;;
13731;SDS011;6937;56.096;12.664;2024-02-21T01:47:39;59.28;;;25.52;;
13731;SDS011;6937;56.096;12.664;2024-02-21T01:50:05;54.50;;;24.45;;
13731;SDS011;6937;56.096;12.664;2024-02-21T01:52:31;62.03;;;26.42;;
13731;SDS011;6937;56.096;12.664;2024-02-21T01:54:59;55.67;;;23.70;;
13731;SDS011;6937;56.096;12.664;2024-02-21T01:57:25;51.60;;;24.80;;
13731;SDS011;6937;56.096;12.664;2024-02-21T01:59:52;53.35;;;24.08;;
13731;SDS011;6937;56.096;12.664;2024-02-21T02:02:17;46.75;;;22.95;;
13731;SDS011;6937;56.096;12.664;2024-02-21T02:04:43;44.70;;;23.08;;
13731;SDS011;6937;56.096;12.664;2024-02-21T02:07:10;47.25;;;22.48;;
13731;SDS011;6937;56.096;12.664;2024-02-21T02:09:35;41.83;;;20.98;;
13731;SDS011;6937;56.096;12.664;2024-02-21T02:12:01;35.58;;;19.10;;
13731;SDS011;6937;56.096;12.664;2024-02-21T02:14:27;37.63;;;21.20;;
13731;SDS011;6937;56.096;12.664;2024-02-21T02:16:52;38.85;;;20.52;;
13731;SDS011;6937;56.096;12.664;2024-02-21T02:19:18;35.13;;;19.60;;
13731;SDS011;6937;56.096;12.664;2024-02-21T02:21:46;37.60;;;18.98;;
13731;SDS011;6937;56.096;12.664;2024-02-21T02:24:21;34.63;;;19.95;;
13731;SDS011;6937;56.096;12.664;2024-02-21T02:26:49;29.27;;;18.35;;
13731;SDS011;6937;56.096;12.664;2024-02-21T02:29:14;27.35;;;17.08;;
13731;SDS011;6937;56.096;12.664;2024-02-21T02:31:40;31.33;;;17.25;;
13731;SDS011;6937;56.096;12.664;2024-02-21T02:34:05;30.20;;;17.13;;
13731;SDS011;6937;56.096;12.664;2024-02-21T02:36:33;28.85;;;16.73;;
13731;SDS011;6937;56.096;12.664;2024-02-21T02:38:59;31.85;;;17.23;;
13731;SDS011;6937;56.096;12.664;2024-02-21T02:41:24;27.65;;;15.38;;
13731;SDS011;6937;56.096;12.664;2024-02-21T02:43:50;24.90;;;15.15;;
13731;SDS011;6937;56.096;12.664;2024-02-21T02:46:15;23.90;;;15.77;;
13731;SDS011;6937;56.096;12.664;2024-02-21T02:48:41;26.33;;;14.80;;
13731;SDS011;6937;56.096;12.664;2024-02-21T02:51:06;23.85;;;14.40;;
13731;SDS011;6937;56.096;12.664;2024-02-21T02:53:32;18.27;;;13.80;;
13731;SDS011;6937;56.096;12.664;2024-02-21T02:55:57;22.27;;;14.10;;
13731;SDS011;6937;56.096;12.664;2024-02-21T02:58:22;19.75;;;13.57;;
13731;SDS011;6937;56.096;12.664;2024-02-21T03:00:48;19.17;;;12.68;;
13731;SDS011;6937;56.096;12.664;2024-02-21T03:03:13;21.55;;;12.77;;
13731;SDS011;6937;56.096;12.664;2024-02-21T03:05:39;19.10;;;12.07;;
13731;SDS011;6937;56.096;12.664;2024-02-21T03:08:04;15.13;;;12.20;;
13731;SDS011;6937;56.096;12.664;2024-02-21T03:10:32;17.85;;;11.70;;
13731;SDS011;6937;56.096;12.664;2024-02-21T03:12:58;18.65;;;12.27;;
13731;SDS011;6937;56.096;12.664;2024-02-21T03:15:23;15.63;;;11.95;;
13731;SDS011;6937;56.096;12.664;2024-02-21T03:17:49;19.40;;;12.25;;
13731;SDS011;6937;56.096;12.664;2024-02-21T03:20:14;16.05;;;11.65;;
13731;SDS011;6937;56.096;12.664;2024-02-21T03:22:40;16.75;;;11.93;;
13731;SDS011;6937;56.096;12.664;2024-02-21T03:25:06;24.10;;;13.02;;
13731;SDS011;6937;56.096;12.664;2024-02-21T03:27:32;19.98;;;12.95;;
13731;SDS011;6937;56.096;12.664;2024-02-21T03:29:57;20.52;;;12.93;;
13731;SDS011;6937;56.096;12.664;2024-02-21T03:32:23;21.92;;;14.32;;
13731;SDS011;6937;56.096;12.664;2024-02-21T03:34:49;29.67;;;14.40;;
13731;SDS011;6937;56.096;12.664;2024-02-21T03:37:14;23.05;;;14.07;;
13731;SDS011;6937;56.096;12.664;2024-02-21T03:39:40;24.58;;;14.68;;
13731;SDS011;6937;56.096;12.664;2024-02-21T03:42:05;24.55;;;14.32;;
13731;SDS011;6937;56.096;12.664;2024-02-21T03:44:31;29.52;;;15.40;;
13731;SDS011;6937;56.096;12.664;2024-02-21T03:46:58;25.27;;;15.18;;
13731;SDS011;6937;56.096;12.664;2024-02-21T03:49:24;26.02;;;15.05;;
13731;SDS011;6937;56.096;12.664;2024-02-21T03:51:49;25.02;;;14.63;;
13731;SDS011;6937;56.096;12.664;2024-02-21T03:54:15;22.98;;;14.35;;
13731;SDS011;6937;56.096;12.664;2024-02-21T03:56:40;22.58;;;13.68;;
13731;SDS011;6937;56.096;12.664;2024-02-21T03:59:06;22.70;;;13.23;;
13731;SDS011;6937;56.096;12.664;2024-02-21T04:01:33;20.13;;;12.77;;
13731;SDS011;6937;56.096;12.664;2024-02-21T04:03:59;21.80;;;13.32;;
13731;SDS011;6937;56.096;12.664;2024-02-21T04:06:24;20.38;;;12.80;;
13731;SDS011;6937;56.096;12.664;2024-02-21T04:08:49;18.67;;;11.75;;
13731;SDS011;6937;56.096;12.664;2024-02-21T04:11:15;16.10;;;9.40;;
13731;SDS011;6937;56.096;12.664;2024-02-21T04:13:40;13.98;;;8.45;;
13731;SDS011;6937;56.096;12.664;2024-02-21T04:16:05;19.23;;;8.88;;
13731;SDS011;6937;56.096;12.664;2024-02-21T04:18:31;14.25;;;8.48;;
13731;SDS011;6937;56.096;12.664;2024-02-21T04:20:56;13.90;;;8.07;;
13731;SDS011;6937;56.096;12.664;2024-02-21T04:23:22;11.40;;;7.18;;
13731;SDS011;6937;56.096;12.664;2024-02-21T04:25:47;10.05;;;5.18;;
13731;SDS011;6937;56.096;12.664;2024-02-21T04:28:13;10.57;;;5.57;;
13731;SDS011;6937;56.096;12.664;2024-02-21T04:30:38;12.07;;;5.10;;
13731;SDS011;6937;56.096;12.664;2024-02-21T04:33:03;9.15;;;4.80;;
13731;SDS011;6937;56.096;12.664;2024-02-21T04:35:29;10.65;;;4.90;;
13731;SDS011;6937;56.096;12.664;2024-02-21T04:37:54;9.48;;;3.83;;
13731;SDS011;6937;56.096;12.664;2024-02-21T04:40:22;6.85;;;3.40;;
13731;SDS011;6937;56.096;12.664;2024-02-21T04:42:47;4.25;;;2.70;;
13731;SDS011;6937;56.096;12.664;2024-02-21T04:45:13;5.50;;;2.33;;
13731;SDS011;6937;56.096;12.664;2024-02-21T04:47:38;5.07;;;1.80;;
13731;SDS011;6937;56.096;12.664;2024-02-21T04:50:04;4.28;;;1.48;;
13731;SDS011;6937;56.096;12.664;2024-02-21T04:52:31;2.28;;;1.40;;
13731;SDS011;6937;56.096;12.664;2024-02-21T04:54:56;5.00;;;1.80;;
13731;SDS011;6937;56.096;12.664;2024-02-21T04:57:21;3.17;;;1.48;;
13731;SDS011;6937;56.096;12.664;2024-02-21T04:59:47;3.05;;;1.30;;
13731;SDS011;6937;56.096;12.664;2024-02-21T05:02:15;4.07;;;1.40;;
13731;SDS011;6937;56.096;12.664;2024-02-21T05:04:41;3.95;;;1.52;;
13731;SDS011;6937;56.096;12.664;2024-02-21T05:07:07;2.30;;;1.08;;
13731;SDS011;6937;56.096;12.664;2024-02-21T05:09:33;3.65;;;1.25;;
13731;SDS011;6937;56.096;12.664;2024-02-21T05:11:58;3.22;;;1.20;;
13731;SDS011;6937;56.096;12.664;2024-02-21T05:14:24;4.03;;;1.30;;
13731;SDS011;6937;56.096;12.664;2024-02-21T05:16:52;3.40;;;1.25;;
13731;SDS011;6937;56.096;12.664;2024-02-21T05:19:18;5.35;;;1.13;;
13731;SDS011;6937;56.096;12.664;2024-02-21T05:21:44;3.15;;;1.33;;
13731;SDS011;6937;56.096;12.664;2024-02-21T05:24:09;4.38;;;1.58;;
13731;SDS011;6937;56.096;12.664;2024-02-21T05:26:35;4.80;;;1.42;;
13731;SDS011;6937;56.096;12.664;2024-02-21T05:29:00;3.75;;;1.35;;
13731;SDS011;6937;56.096;12.664;2024-02-21T05:31:26;4.10;;;1.30;;
13731;SDS011;6937;56.096;12.664;2024-02-21T05:34:07;3.20;;;1.33;;
13731;SDS011;6937;56.096;12.664;2024-02-21T05:36:33;5.00;;;1.55;;
13731;SDS011;6937;56.096;12.664;2024-02-21T05:39:00;3.47;;;1.08;;
13731;SDS011;6937;56.096;12.664;2024-02-21T05:41:25;3.10;;;1.40;;
13731;SDS011;6937;56.096;12.664;2024-02-21T05:43:51;6.55;;;1.67;;
13731;SDS011;6937;56.096;12.664;2024-02-21T05:46:19;4.50;;;1.73;;
13731;SDS011;6937;56.096;12.664;2024-02-21T05:48:44;5.35;;;1.70;;
13731;SDS011;6937;56.096;12.664;2024-02-21T05:51:10;5.00;;;1.73;;
13731;SDS011;6937;56.096;12.664;2024-02-21T05:53:36;4.18;;;1.70;;
13731;SDS011;6937;56.096;12.664;2024-02-21T05:56:06;5.30;;;1.40;;
13731;SDS011;6937;56.096;12.664;2024-02-21T05:58:35;5.47;;;1.60;;
13731;SDS011;6937;56.096;12.664;2024-02-21T06:01:00;9.13;;;2.03;;
13731;SDS011;6937;56.096;12.664;2024-02-21T06:03:28;5.57;;;1.80;;
13731;SDS011;6937;56.096;12.664;2024-02-21T06:05:53;8.13;;;1.67;;
13731;SDS011;6937;56.096;12.664;2024-02-21T06:08:19;6.05;;;2.15;;
13731;SDS011;6937;56.096;12.664;2024-02-21T06:10:45;6.35;;;1.70;;
13731;SDS011;6937;56.096;12.664;2024-02-21T06:13:10;7.55;;;1.90;;
13731;SDS011;6937;56.096;12.664;2024-02-21T06:15:36;5.97;;;1.75;;
13731;SDS011;6937;56.096;12.664;2024-02-21T06:18:01;9.32;;;1.75;;
13731;SDS011;6937;56.096;12.664;2024-02-21T06:20:26;6.57;;;2.00;;
13731;SDS011;6937;56.096;12.664;2024-02-21T06:22:52;6.85;;;1.85;;
13731;SDS011;6937;56.096;12.664;2024-02-21T06:25:18;8.23;;;2.00;;
13731;SDS011;6937;56.096;12.664;2024-02-21T06:27:43;7.35;;;2.08;;
13731;SDS011;6937;56.096;12.664;2024-02-21T06:30:09;6.55;;;1.73;;
13731;SDS011;6937;56.096;12.664;2024-02-21T06:32:35;6.50;;;1.98;;
13731;SDS011;6937;56.096;12.664;2024-02-21T06:35:00;8.85;;;2.00;;
13731;SDS011;6937;56.096;12.664;2024-02-21T06:37:27;4.32;;;1.77;;
13731;SDS011;6937;56.096;12.664;2024-02-21T06:39:52;9.25;;;1.92;;
13731;SDS011;6937;56.096;12.664;2024-02-21T06:42:18;6.45;;;2.10;;
13731;SDS011;6937;56.096;12.664;2024-02-21T06:44:44;8.45;;;1.95;;
13731;SDS011;6937;56.096;12.664;2024-02-21T06:47:09;8.20;;;2.30;;
13731;SDS011;6937;56.096;12.664;2024-02-21T06:49:35;8.15;;;2.15;;
13731;SDS011;6937;56.096;12.664;2024-02-21T06:52:02;8.38;;;2.35;;
13731;SDS011;6937;56.096;12.664;2024-02-21T06:54:29;13.52;;;2.45;;
13731;SDS011;6937;56.096;12.664;2024-02-21T06:56:55;9.82;;;2.67;;
13731;SDS011;6937;56.096;12.664;2024-02-21T06:59:20;8.65;;;2.58;;
13731;SDS011;6937;56.096;12.664;2024-02-21T07:01:49;10.23;;;2.92;;
13731;SDS011;6937;56.096;12.664;2024-02-21T07:04:16;12.70;;;2.65;;
13731;SDS011;6937;56.096;12.664;2024-02-21T07:06:42;14.00;;;2.60;;
13731;SDS011;6937;56.096;12.664;2024-02-21T07:09:07;11.90;;;2.75;;
13731;SDS011;6937;56.096;12.664;2024-02-21T07:11:32;12.18;;;3.00;;
13731;SDS011;6937;56.096;12.664;2024-02-21T07:13:58;16.73;;;2.88;;
13731;SDS011;6937;56.096;12.664;2024-02-21T07:16:23;11.38;;;2.60;;
13731;SDS011;6937;56.096;12.664;2024-02-21T07:18:48;15.80;;;3.03;;
13731;SDS011;6937;56.096;12.664;2024-02-21T07:21:14;11.02;;;2.85;;
13731;SDS011;6937;56.096;12.664;2024-02-21T07:23:43;14.18;;;3.17;;
13731;SDS011;6937;56.096;12.664;2024-02-21T07:26:08;10.18;;;2.88;;
13731;SDS011;6937;56.096;12.664;2024-02-21T07:28:33;11.55;;;3.17;;
13731;SDS011;6937;56.096;12.664;2024-02-21T07:30:59;15.50;;;3.10;;
13731;SDS011;6937;56.096;12.664;2024-02-21T07:33:25;11.18;;;3.03;;
13731;SDS011;6937;56.096;12.664;2024-02-21T07:35:50;13.98;;;3.25;;
13731;SDS011;6937;56.096;12.664;2024-02-21T07:38:16;14.98;;;3.10;;
13731;SDS011;6937;56.096;12.664;2024-02-21T07:40:46;12.15;;;3.17;;
13731;SDS011;6937;56.096;12.664;2024-02-21T07:43:11;13.80;;;3.40;;
13731;SDS011;6937;56.096;12.664;2024-02-21T07:45:36;13.88;;;2.90;;
13731;SDS011;6937;56.096;12.664;2024-02-21T07:48:04;15.20;;;3.25;;
13731;SDS011;6937;56.096;12.664;2024-02-21T07:50:33;12.52;;;2.90;;
13731;SDS011;6937;56.096;12.664;2024-02-21T07:52:58;11.32;;;2.75;;
13731;SDS011;6937;56.096;12.664;2024-02-21T07:55:23;11.93;;;3.28;;
13731;SDS011;6937;56.096;12.664;2024-02-21T07:57:49;11.80;;;2.45;;
13731;SDS011;6937;56.096;12.664;2024-02-21T08:00:15;10.40;;;2.15;;
13731;SDS011;6937;56.096;12.664;2024-02-21T08:02:53;14.50;;;2.75;;
13731;SDS011;6937;56.096;12.664;2024-02-21T08:05:18;12.07;;;2.72;;
13731;SDS011;6937;56.096;12.664;2024-02-21T08:07:44;7.85;;;2.00;;
13731;SDS011;6937;56.096;12.664;2024-02-21T08:10:09;8.35;;;1.83;;
13731;SDS011;6937;56.096;12.664;2024-02-21T08:12:35;6.57;;;2.08;;
13731;SDS011;6937;56.096;12.664;2024-02-21T08:15:01;8.55;;;1.67;;
13731;SDS011;6937;56.096;12.664;2024-02-21T08:17:28;10.32;;;2.35;;
13731;SDS011;6937;56.096;12.664;2024-02-21T08:19:54;9.23;;;1.85;;
13731;SDS011;6937;56.096;12.664;2024-02-21T08:22:19;9.60;;;1.90;;
13731;SDS011;6937;56.096;12.664;2024-02-21T08:24:45;9.45;;;2.05;;
13731;SDS011;6937;56.096;12.664;2024-02-21T08:27:10;9.75;;;2.47;;
13731;SDS011;6937;56.096;12.664;2024-02-21T08:29:35;8.75;;;2.00;;
13731;SDS011;6937;56.096;12.664;2024-02-21T08:32:01;10.35;;;2.13;;
13731;SDS011;6937;56.096;12.664;2024-02-21T08:34:26;10.75;;;2.08;;
13731;SDS011;6937;56.096;12.664;2024-02-21T08:36:54;15.32;;;2.40;;
13731;SDS011;6937;56.096;12.664;2024-02-21T08:39:20;14.27;;;2.60;;
13731;SDS011;6937;56.096;12.664;2024-02-21T08:41:46;7.43;;;1.80;;
13731;SDS011;6937;56.096;12.664;2024-02-21T08:44:11;12.25;;;2.08;;
13731;SDS011;6937;56.096;12.664;2024-02-21T08:46:37;11.27;;;2.05;;
13731;SDS011;6937;56.096;12.664;2024-02-21T08:49:05;13.32;;;2.28;;
13731;SDS011;6937;56.096;12.664;2024-02-21T08:51:30;9.23;;;1.75;;
13731;SDS011;6937;56.096;12.664;2024-02-21T08:53:56;7.32;;;1.63;;
13731;SDS011;6937;56.096;12.664;2024-02-21T08:56:21;6.07;;;1.40;;
13731;SDS011;6937;56.096;12.664;2024-02-21T08:58:46;10.48;;;1.67;;
13731;SDS011;6937;56.096;12.664;2024-02-21T09:01:12;9.10;;;1.83;;
13731;SDS011;6937;56.096;12.664;2024-02-21T09:03:38;8.70;;;1.88;;
13731;SDS011;6937;56.096;12.664;2024-02-21T09:06:04;9.20;;;1.60;;
13731;SDS011;6937;56.096;12.664;2024-02-21T09:08:30;9.13;;;1.90;;
13731;SDS011;6937;56.096;12.664;2024-02-21T09:10:56;9.23;;;2.38;;
13731;SDS011;6937;56.096;12.664;2024-02-21T09:13:21;10.30;;;2.10;;
13731;SDS011;6937;56.096;12.664;2024-02-21T09:15:47;13.40;;;2.65;;
13731;SDS011;6937;56.096;12.664;2024-02-21T09:18:13;24.00;;;3.97;;
13731;SDS011;6937;56.096;12.664;2024-02-21T09:20:39;13.25;;;2.65;;
13731;SDS011;6937;56.096;12.664;2024-02-21T09:23:05;19.13;;;3.58;;
13731;SDS011;6937;56.096;12.664;2024-02-21T09:25:30;14.25;;;3.20;;
13731;SDS011;6937;56.096;12.664;2024-02-21T09:27:56;18.60;;;3.65;;
13731;SDS011;6937;56.096;12.664;2024-02-21T09:30:23;18.85;;;3.53;;
13731;SDS011;6937;56.096;12.664;2024-02-21T09:32:49;15.70;;;3.60;;
13731;SDS011;6937;56.096;12.664;2024-02-21T09:35:14;21.27;;;3.65;;
13731;SDS011;6937;56.096;12.664;2024-02-21T09:37:40;22.85;;;3.45;;
13731;SDS011;6937;56.096;12.664;2024-02-21T09:40:05;17.75;;;3.42;;
13731;SDS011;6937;56.096;12.664;2024-02-21T09:42:38;15.68;;;3.17;;
13731;SDS011;6937;56.096;12.664;2024-02-21T09:45:07;18.40;;;3.67;;
13731;SDS011;6937;56.096;12.664;2024-02-21T09:50:49;19.95;;;3.45;;
13731;SDS011;6937;56.096;12.664;2024-02-21T09:53:16;18.23;;;3.17;;
13731;SDS011;6937;56.096;12.664;2024-02-21T09:55:43;16.73;;;2.92;;
13731;SDS011;6937;56.096;12.664;2024-02-21T09:58:09;18.42;;;3.63;;
13731;SDS011;6937;56.096;12.664;2024-02-21T10:00:35;16.23;;;4.03;;
13731;SDS011;6937;56.096;12.664;2024-02-21T10:03:01;14.82;;;3.00;;
13731;SDS011;6937;56.096;12.664;2024-02-21T10:05:32;20.20;;;3.40;;
13731;SDS011;6937;56.096;12.664;2024-02-21T10:07:59;19.33;;;3.72;;
13731;SDS011;6937;56.096;12.664;2024-02-21T10:10:24;15.90;;;3.22;;
13731;SDS011;6937;56.096;12.664;2024-02-21T10:12:52;15.07;;;3.40;;
13731;SDS011;6937;56.096;12.664;2024-02-21T10:15:23;19.48;;;3.63;;
13731;SDS011;6937;56.096;12.664;2024-02-21T10:17:50;14.27;;;3.33;;
13731;SDS011;6937;56.096;12.664;2024-02-21T10:20:23;14.88;;;3.15;;
13731;SDS011;6937;56.096;12.664;2024-02-21T10:22:48;14.98;;;3.50;;
13731;SDS011;6937;56.096;12.664;2024-02-21T10:25:14;19.50;;;3.40;;
13731;SDS011;6937;56.096;12.664;2024-02-21T10:27:40;15.95;;;3.42;;
13731;SDS011;6937;56.096;12.664;2024-02-21T10:32:59;16.88;;;3.95;;
13731;SDS011;6937;56.096;12.664;2024-02-21T10:35:31;20.63;;;3.25;;
13731;SDS011;6937;56.096;12.664;2024-02-21T10:37:58;17.05;;;3.42;;
13731;SDS011;6937;56.096;12.664;2024-02-21T10:40:24;16.13;;;2.97;;
13731;SDS011;6937;56.096;12.664;2024-02-21T10:42:54;12.80;;;3.03;;
13731;SDS011;6937;56.096;12.664;2024-02-21T10:45:34;17.10;;;3.60;;
13731;SDS011;6937;56.096;12.664;2024-02-21T10:48:13;14.68;;;3.42;;
13731;SDS011;6937;56.096;12.664;2024-02-21T10:50:52;12.80;;;3.17;;
13731;SDS011;6937;56.096;12.664;2024-02-21T10:58:41;15.65;;;2.78;;
13731;SDS011;6937;56.096;12.664;2024-02-21T11:01:09;12.93;;;3.05;;
13731;SDS011;6937;56.096;12.664;2024-02-21T11:03:34;8.25;;;2.30;;
13731;SDS011;6937;56.096;12.664;2024-02-21T11:06:01;12.50;;;2.65;;
13731;SDS011;6937;56.096;12.664;2024-02-21T11:08:30;11.80;;;3.33;;
13731;SDS011;6937;56.096;12.664;2024-02-21T11:10:58;11.18;;;2.60;;
13731;SDS011;6937;56.096;12.664;2024-02-21T11:13:37;11.05;;;2.97;;
13731;SDS011;6937;56.096;12.664;2024-02-21T11:16:09;10.65;;;2.58;;
13731;SDS011;6937;56.096;12.664;2024-02-21T11:18:39;14.75;;;3.03;;
13731;SDS011;6937;56.096;12.664;2024-02-21T11:21:04;11.02;;;2.70;;
13731;SDS011;6937;56.096;12.664;2024-02-21T11:23:30;11.02;;;3.00;;
13731;SDS011;6937;56.096;12.664;2024-02-21T11:26:06;15.00;;;3.00;;
13731;SDS011;6937;56.096;12.664;2024-02-21T11:28:32;13.27;;;2.55;;
13731;SDS011;6937;56.096;12.664;2024-02-21T11:31:07;12.50;;;2.95;;
13731;SDS011;6937;56.096;12.664;2024-02-21T11:33:34;16.13;;;3.35;;
13731;SDS011;6937;56.096;12.664;2024-02-21T11:36:00;16.48;;;3.20;;
13731;SDS011;6937;56.096;12.664;2024-02-21T11:38:26;13.30;;;3.42;;
13731;SDS011;6937;56.096;12.664;2024-02-21T11:40:51;11.25;;;2.58;;
13731;SDS011;6937;56.096;12.664;2024-02-21T11:43:17;13.35;;;2.72;;
13731;SDS011;6937;56.096;12.664;2024-02-21T11:45:42;12.88;;;3.38;;
13731;SDS011;6937;56.096;12.664;2024-02-21T11:48:08;11.50;;;2.80;;
13731;SDS011;6937;56.096;12.664;2024-02-21T11:50:36;11.52;;;3.05;;
13731;SDS011;6937;56.096;12.664;2024-02-21T11:53:04;11.25;;;2.63;;
13731;SDS011;6937;56.096;12.664;2024-02-21T11:55:29;12.43;;;2.90;;
13731;SDS011;6937;56.096;12.664;2024-02-21T11:57:55;10.40;;;2.30;;
13731;SDS011;6937;56.096;12.664;2024-02-21T12:00:20;10.38;;;3.20;;
13731;SDS011;6937;56.096;12.664;2024-02-21T12:02:46;15.95;;;3.25;;
13731;SDS011;6937;56.096;12.664;2024-02-21T12:05:12;22.60;;;4.43;;
13731;SDS011;6937;56.096;12.664;2024-02-21T12:07:38;14.38;;;3.17;;
13731;SDS011;6937;56.096;12.664;2024-02-21T12:10:07;16.63;;;3.58;;
13731;SDS011;6937;56.096;12.664;2024-02-21T12:12:39;11.70;;;2.78;;
13731;SDS011;6937;56.096;12.664;2024-02-21T12:15:05;13.85;;;3.40;;
13731;SDS011;6937;56.096;12.664;2024-02-21T12:17:38;12.57;;;2.45;;
13731;SDS011;6937;56.096;12.664;2024-02-21T12:20:05;15.77;;;2.95;;
13731;SDS011;6937;56.096;12.664;2024-02-21T12:22:37;9.88;;;2.00;;
13731;SDS011;6937;56.096;12.664;2024-02-21T12:25:24;11.88;;;2.30;;
13731;SDS011;6937;56.096;12.664;2024-02-21T12:27:51;11.70;;;2.60;;
13731;SDS011;6937;56.096;12.664;2024-02-21T12:30:17;7.32;;;2.33;;
13731;SDS011;6937;56.096;12.664;2024-02-21T12:32:42;17.95;;;4.20;;
13731;SDS011;6937;56.096;12.664;2024-02-21T12:35:08;8.07;;;2.70;;
13731;SDS011;6937;56.096;12.664;2024-02-21T12:37:33;13.23;;;2.72;;
13731;SDS011;6937;56.096;12.664;2024-02-21T12:39:59;17.33;;;3.65;;
13731;SDS011;6937;56.096;12.664;2024-02-21T12:42:25;13.68;;;2.60;;
13731;SDS011;6937;56.096;12.664;2024-02-21T12:44:51;9.20;;;2.10;;
13731;SDS011;6937;56.096;12.664;2024-02-21T12:47:17;8.57;;;2.33;;
13731;SDS011;6937;56.096;12.664;2024-02-21T12:49:44;10.88;;;2.30;;
13731;SDS011;6937;56.096;12.664;2024-02-21T12:52:10;26.73;;;4.20;;
13731;SDS011;6937;56.096;12.664;2024-02-21T12:54:36;19.92;;;4.35;;
13731;SDS011;6937;56.096;12.664;2024-02-21T12:57:01;13.52;;;3.00;;
13731;SDS011;6937;56.096;12.664;2024-02-21T12:59:27;10.70;;;2.30;;
13731;SDS011;6937;56.096;12.664;2024-02-21T13:01:54;9.20;;;2.20;;
13731;SDS011;6937;56.096;12.664;2024-02-21T13:04:19;10.88;;;1.95;;
13731;SDS011;6937;56.096;12.664;2024-02-21T13:06:46;12.30;;;2.75;;
13731;SDS011;6937;56.096;12.664;2024-02-21T13:09:12;12.13;;;2.90;;
13731;SDS011;6937;56.096;12.664;2024-02-21T13:11:38;10.70;;;2.45;;
13731;SDS011;6937;56.096;12.664;2024-02-21T13:14:05;8.50;;;1.83;;
13731;SDS011;6937;56.096;12.664;2024-02-21T13:16:31;17.45;;;4.00;;
13731;SDS011;6937;56.096;12.664;2024-02-21T13:18:56;11.07;;;2.45;;
13731;SDS011;6937;56.096;12.664;2024-02-21T13:21:22;9.30;;;2.30;;
13731;SDS011;6937;56.096;12.664;2024-02-21T13:23:47;10.32;;;2.55;;
13731;SDS011;6937;56.096;12.664;2024-02-21T13:26:13;8.95;;;1.92;;
13731;SDS011;6937;56.096;12.664;2024-02-21T13:28:39;8.93;;;2.15;;
13731;SDS011;6937;56.096;12.664;2024-02-21T13:31:04;7.32;;;1.98;;
13731;SDS011;6937;56.096;12.664;2024-02-21T13:33:30;9.25;;;2.28;;
13731;SDS011;6937;56.096;12.664;2024-02-21T13:35:55;8.48;;;2.33;;
13731;SDS011;6937;56.096;12.664;2024-02-21T13:38:20;6.85;;;2.20;;
13731;SDS011;6937;56.096;12.664;2024-02-21T13:40:46;7.10;;;2.13;;
13731;SDS011;6937;56.096;12.664;2024-02-21T13:43:11;9.10;;;2.40;;
13731;SDS011;6937;56.096;12.664;2024-02-21T13:45:37;9.25;;;2.53;;
13731;SDS011;6937;56.096;12.664;2024-02-21T13:48:03;9.52;;;2.28;;
13731;SDS011;6937;56.096;12.664;2024-02-21T13:50:31;9.50;;;2.17;;
13731;SDS011;6937;56.096;12.664;2024-02-21T13:52:57;11.73;;;2.60;;
13731;SDS011;6937;56.096;12.664;2024-02-21T13:55:23;10.57;;;2.58;;
13731;SDS011;6937;56.096;12.664;2024-02-21T13:57:51;7.47;;;2.08;;
13731;SDS011;6937;56.096;12.664;2024-02-21T14:00:17;8.32;;;2.47;;
13731;SDS011;6937;56.096;12.664;2024-02-21T14:02:43;7.80;;;2.17;;
13731;SDS011;6937;56.096;12.664;2024-02-21T14:05:09;9.68;;;2.70;;
13731;SDS011;6937;56.096;12.664;2024-02-21T14:07:35;7.82;;;2.67;;
13731;SDS011;6937;56.096;12.664;2024-02-21T14:10:00;11.68;;;3.20;;
13731;SDS011;6937;56.096;12.664;2024-02-21T14:12:25;8.52;;;2.53;;
13731;SDS011;6937;56.096;12.664;2024-02-21T14:14:51;10.52;;;2.97;;
13731;SDS011;6937;56.096;12.664;2024-02-21T14:17:17;7.90;;;2.47;;
13731;SDS011;6937;56.096;12.664;2024-02-21T14:19:42;10.45;;;2.50;;
13731;SDS011;6937;56.096;12.664;2024-02-21T14:22:08;9.60;;;3.60;;
13731;SDS011;6937;56.096;12.664;2024-02-21T14:24:35;11.77;;;3.38;;
13731;SDS011;6937;56.096;12.664;2024-02-21T14:27:00;12.52;;;3.03;;
13731;SDS011;6937;56.096;12.664;2024-02-21T14:29:25;8.98;;;2.58;;
13731;SDS011;6937;56.096;12.664;2024-02-21T14:31:51;9.10;;;3.30;;
13731;SDS011;6937;56.096;12.664;2024-02-21T14:34:16;12.30;;;3.50;;
13731;SDS011;6937;56.096;12.664;2024-02-21T14:36:42;9.10;;;2.83;;
13731;SDS011;6937;56.096;12.664;2024-02-21T14:39:07;14.18;;;3.08;;
13731;SDS011;6937;56.096;12.664;2024-02-21T14:41:32;12.23;;;2.85;;